sensor_id;sensor_type;location;lat;lon;timestamp;P1;durP1;ratioP1;P2;durP2;ratioP2
64242;SDS011;50573;51.512;5.386;2023-08-06T00:02:12;7.43;;;4.50;;
64242;SDS011;50573;51.512;5.386;2023-08-06T00:22:19;4.43;;;3.80;;
64242;SDS011;50573;51.512;5.386;2023-08-06T00:32:22;6.50;;;3.92;;
64242;SDS011;50573;51.512;5.386;2023-08-06T00:42:27;8.50;;;4.30;;
64242;SDS011;50573;51.512;5.386;2023-08-06T00:52:30;10.00;;;4.22;;
64242;SDS011;50573;51.512;5.386;2023-08-06T01:02:35;7.63;;;3.55;;
64242;SDS011;50573;51.512;5.386;2023-08-06T01:12:40;11.38;;;4.97;;
64242;SDS011;50573;51.512;5.386;2023-08-06T01:22:49;8.00;;;3.65;;
64242;SDS011;50573;51.512;5.386;2023-08-06T01:32:55;7.28;;;3.88;;
64242;SDS011;50573;51.512;5.386;2023-08-06T01:43:03;11.48;;;4.20;;
64242;SDS011;50573;51.512;5.386;2023-08-06T01:53:06;5.40;;;4.07;;
64242;SDS011;50573;51.512;5.386;2023-08-06T02:03:10;6.57;;;4.57;;
64242;SDS011;50573;51.512;5.386;2023-08-06T02:13:14;8.32;;;4.32;;
64242;SDS011;50573;51.512;5.386;2023-08-06T02:23:18;7.25;;;4.70;;
64242;SDS011;50573;51.512;5.386;2023-08-06T02:43:26;9.60;;;5.80;;
64242;SDS011;50573;51.512;5.386;2023-08-06T03:03:38;9.20;;;5.60;;
64242;SDS011;50573;51.512;5.386;2023-08-06T03:13:42;8.30;;;4.55;;
64242;SDS011;50573;51.512;5.386;2023-08-06T03:23:47;8.30;;;4.33;;
64242;SDS011;50573;51.512;5.386;2023-08-06T03:33:54;13.75;;;5.97;;
64242;SDS011;50573;51.512;5.386;2023-08-06T03:44:02;11.20;;;4.95;;
64242;SDS011;50573;51.512;5.386;2023-08-06T03:54:05;9.65;;;3.97;;
64242;SDS011;50573;51.512;5.386;2023-08-06T04:04:11;13.00;;;4.50;;
64242;SDS011;50573;51.512;5.386;2023-08-06T04:14:14;10.13;;;4.82;;
64242;SDS011;50573;51.512;5.386;2023-08-06T04:24:18;10.73;;;5.68;;
64242;SDS011;50573;51.512;5.386;2023-08-06T04:44:27;7.75;;;6.15;;
64242;SDS011;50573;51.512;5.386;2023-08-06T05:04:34;11.80;;;6.93;;
64242;SDS011;50573;51.512;5.386;2023-08-06T05:24:41;12.98;;;6.95;;
64242;SDS011;50573;51.512;5.386;2023-08-06T05:34:44;10.80;;;6.75;;
64242;SDS011;50573;51.512;5.386;2023-08-06T05:44:49;11.93;;;6.97;;
64242;SDS011;50573;51.512;5.386;2023-08-06T06:04:56;8.82;;;5.20;;
64242;SDS011;50573;51.512;5.386;2023-08-06T06:25:04;9.73;;;5.63;;
64242;SDS011;50573;51.512;5.386;2023-08-06T06:35:08;5.32;;;4.47;;
64242;SDS011;50573;51.512;5.386;2023-08-06T06:45:13;2.72;;;1.55;;
64242;SDS011;50573;51.512;5.386;2023-08-06T06:55:16;1.63;;;1.10;;
64242;SDS011;50573;51.512;5.386;2023-08-06T07:05:20;2.83;;;1.50;;
64242;SDS011;50573;51.512;5.386;2023-08-06T07:15:23;3.53;;;2.33;;
64242;SDS011;50573;51.512;5.386;2023-08-06T07:25:28;5.03;;;3.20;;
64242;SDS011;50573;51.512;5.386;2023-08-06T07:35:31;6.40;;;4.50;;
64242;SDS011;50573;51.512;5.386;2023-08-06T07:45:35;7.38;;;4.38;;
64242;SDS011;50573;51.512;5.386;2023-08-06T08:05:44;12.02;;;5.70;;
64242;SDS011;50573;51.512;5.386;2023-08-06T08:15:47;8.15;;;5.80;;
64242;SDS011;50573;51.512;5.386;2023-08-06T08:25:52;10.27;;;4.38;;
64242;SDS011;50573;51.512;5.386;2023-08-06T08:35:55;9.43;;;4.05;;
64242;SDS011;50573;51.512;5.386;2023-08-06T08:46:00;9.57;;;3.80;;
64242;SDS011;50573;51.512;5.386;2023-08-06T08:56:06;9.32;;;4.57;;
64242;SDS011;50573;51.512;5.386;2023-08-06T09:06:11;10.23;;;4.30;;
64242;SDS011;50573;51.512;5.386;2023-08-06T09:16:15;12.88;;;4.45;;
64242;SDS011;50573;51.512;5.386;2023-08-06T09:26:20;10.60;;;4.43;;
64242;SDS011;50573;51.512;5.386;2023-08-06T09:36:24;10.30;;;5.22;;
64242;SDS011;50573;51.512;5.386;2023-08-06T09:46:28;10.63;;;5.55;;
64242;SDS011;50573;51.512;5.386;2023-08-06T09:56:34;10.20;;;4.38;;
64242;SDS011;50573;51.512;5.386;2023-08-06T10:06:40;16.17;;;5.90;;
64242;SDS011;50573;51.512;5.386;2023-08-06T10:16:44;10.95;;;4.63;;
64242;SDS011;50573;51.512;5.386;2023-08-06T10:26:49;9.93;;;3.80;;
64242;SDS011;50573;51.512;5.386;2023-08-06T10:36:54;7.53;;;3.70;;
64242;SDS011;50573;51.512;5.386;2023-08-06T10:46:59;13.15;;;4.82;;
64242;SDS011;50573;51.512;5.386;2023-08-06T10:57:28;11.57;;;3.78;;
64242;SDS011;50573;51.512;5.386;2023-08-06T11:07:33;10.75;;;4.50;;
64242;SDS011;50573;51.512;5.386;2023-08-06T11:17:36;10.35;;;5.05;;
64242;SDS011;50573;51.512;5.386;2023-08-06T11:27:41;15.38;;;4.80;;
64242;SDS011;50573;51.512;5.386;2023-08-06T11:47:51;10.88;;;4.25;;
64242;SDS011;50573;51.512;5.386;2023-08-06T11:57:55;12.27;;;5.07;;
64242;SDS011;50573;51.512;5.386;2023-08-06T12:08:00;11.85;;;6.30;;
64242;SDS011;50573;51.512;5.386;2023-08-06T12:18:05;16.90;;;5.70;;
64242;SDS011;50573;51.512;5.386;2023-08-06T12:28:12;7.60;;;2.75;;
64242;SDS011;50573;51.512;5.386;2023-08-06T12:38:18;6.97;;;2.78;;
64242;SDS011;50573;51.512;5.386;2023-08-06T12:48:23;8.65;;;2.08;;
64242;SDS011;50573;51.512;5.386;2023-08-06T13:08:51;5.10;;;2.20;;
64242;SDS011;50573;51.512;5.386;2023-08-06T13:18:54;7.32;;;2.55;;
64242;SDS011;50573;51.512;5.386;2023-08-06T13:29:02;10.73;;;2.03;;
64242;SDS011;50573;51.512;5.386;2023-08-06T13:39:18;6.63;;;2.42;;
64242;SDS011;50573;51.512;5.386;2023-08-06T13:49:44;5.43;;;2.15;;
64242;SDS011;50573;51.512;5.386;2023-08-06T13:59:47;9.10;;;2.60;;
64242;SDS011;50573;51.512;5.386;2023-08-06T14:10:01;6.13;;;2.55;;
64242;SDS011;50573;51.512;5.386;2023-08-06T14:20:07;6.07;;;1.77;;
64242;SDS011;50573;51.512;5.386;2023-08-06T14:30:17;3.30;;;1.75;;
64242;SDS011;50573;51.512;5.386;2023-08-06T14:40:24;3.28;;;1.90;;
64242;SDS011;50573;51.512;5.386;2023-08-06T14:50:34;3.88;;;1.40;;
64242;SDS011;50573;51.512;5.386;2023-08-06T15:00:41;3.95;;;1.23;;
64242;SDS011;50573;51.512;5.386;2023-08-06T15:10:51;4.05;;;1.10;;
64242;SDS011;50573;51.512;5.386;2023-08-06T15:20:58;3.72;;;1.20;;
64242;SDS011;50573;51.512;5.386;2023-08-06T15:31:08;2.47;;;1.40;;
64242;SDS011;50573;51.512;5.386;2023-08-06T15:41:12;2.10;;;1.10;;
64242;SDS011;50573;51.512;5.386;2023-08-06T15:51:28;4.43;;;1.58;;
64242;SDS011;50573;51.512;5.386;2023-08-06T16:01:31;4.25;;;1.13;;
64242;SDS011;50573;51.512;5.386;2023-08-06T16:11:38;2.83;;;1.10;;
64242;SDS011;50573;51.512;5.386;2023-08-06T16:21:54;7.95;;;1.33;;
64242;SDS011;50573;51.512;5.386;2023-08-06T16:32:05;5.22;;;1.90;;
64242;SDS011;50573;51.512;5.386;2023-08-06T16:42:08;9.90;;;1.08;;
64242;SDS011;50573;51.512;5.386;2023-08-06T16:52:12;11.25;;;2.00;;
64242;SDS011;50573;51.512;5.386;2023-08-06T17:02:21;9.38;;;1.45;;
64242;SDS011;50573;51.512;5.386;2023-08-06T17:12:28;8.52;;;1.85;;
64242;SDS011;50573;51.512;5.386;2023-08-06T17:22:41;8.25;;;2.00;;
64242;SDS011;50573;51.512;5.386;2023-08-06T17:32:46;10.35;;;2.40;;
64242;SDS011;50573;51.512;5.386;2023-08-06T17:42:49;15.02;;;2.75;;
64242;SDS011;50573;51.512;5.386;2023-08-06T17:52:58;13.30;;;2.17;;
64242;SDS011;50573;51.512;5.386;2023-08-06T18:03:09;11.63;;;1.85;;
64242;SDS011;50573;51.512;5.386;2023-08-06T18:13:14;9.27;;;2.08;;
64242;SDS011;50573;51.512;5.386;2023-08-06T18:23:27;10.60;;;1.90;;
64242;SDS011;50573;51.512;5.386;2023-08-06T18:33:32;9.98;;;1.63;;
64242;SDS011;50573;51.512;5.386;2023-08-06T18:43:38;12.35;;;2.17;;
64242;SDS011;50573;51.512;5.386;2023-08-06T18:53:49;9.77;;;2.30;;
64242;SDS011;50573;51.512;5.386;2023-08-06T19:03:56;14.33;;;2.17;;
64242;SDS011;50573;51.512;5.386;2023-08-06T19:14:00;11.77;;;2.08;;
64242;SDS011;50573;51.512;5.386;2023-08-06T19:24:03;15.95;;;2.08;;
64242;SDS011;50573;51.512;5.386;2023-08-06T19:34:08;10.60;;;1.80;;
64242;SDS011;50573;51.512;5.386;2023-08-06T19:44:11;9.23;;;1.45;;
64242;SDS011;50573;51.512;5.386;2023-08-06T19:54:15;9.02;;;1.65;;
64242;SDS011;50573;51.512;5.386;2023-08-06T20:04:19;9.05;;;1.98;;
64242;SDS011;50573;51.512;5.386;2023-08-06T20:14:24;17.23;;;2.38;;
64242;SDS011;50573;51.512;5.386;2023-08-06T20:24:27;12.35;;;2.38;;
64242;SDS011;50573;51.512;5.386;2023-08-06T20:34:31;12.27;;;2.40;;
64242;SDS011;50573;51.512;5.386;2023-08-06T20:44:34;15.35;;;2.70;;
64242;SDS011;50573;51.512;5.386;2023-08-06T20:54:39;19.33;;;2.77;;
64242;SDS011;50573;51.512;5.386;2023-08-06T21:04:43;12.20;;;2.45;;
64242;SDS011;50573;51.512;5.386;2023-08-06T21:14:47;12.55;;;2.55;;
64242;SDS011;50573;51.512;5.386;2023-08-06T21:24:50;17.00;;;4.03;;
64242;SDS011;50573;51.512;5.386;2023-08-06T21:34:54;17.10;;;3.50;;
64242;SDS011;50573;51.512;5.386;2023-08-06T21:44:59;17.52;;;4.20;;
64242;SDS011;50573;51.512;5.386;2023-08-06T21:55:05;17.73;;;4.00;;
64242;SDS011;50573;51.512;5.386;2023-08-06T22:05:08;17.42;;;3.28;;
64242;SDS011;50573;51.512;5.386;2023-08-06T22:15:13;16.75;;;3.28;;
64242;SDS011;50573;51.512;5.386;2023-08-06T22:25:16;14.95;;;3.25;;
64242;SDS011;50573;51.512;5.386;2023-08-06T22:35:21;11.27;;;2.83;;
64242;SDS011;50573;51.512;5.386;2023-08-06T22:45:24;12.35;;;2.72;;
64242;SDS011;50573;51.512;5.386;2023-08-06T22:55:28;16.10;;;3.08;;
64242;SDS011;50573;51.512;5.386;2023-08-06T23:05:51;16.33;;;2.40;;
64242;SDS011;50573;51.512;5.386;2023-08-06T23:15:55;21.23;;;3.40;;
64242;SDS011;50573;51.512;5.386;2023-08-06T23:25:59;19.17;;;4.20;;
64242;SDS011;50573;51.512;5.386;2023-08-06T23:36:03;16.23;;;3.55;;
64242;SDS011;50573;51.512;5.386;2023-08-06T23:46:06;14.15;;;3.72;;
64242;SDS011;50573;51.512;5.386;2023-08-06T23:56:11;18.55;;;3.67;;
